Time;durP1;ratioP1;P1;durP2;ratioP2;P2;SDS_P1;SDS_P2;PMS_P1;PMS_P2;Temp;Humidity;BMP_temperature;BMP_pressure;BME280_temperature;BME280_humidity;BME280_pressure;Samples;Min_cycle;Max_cycle;Signal;HPM_P1;HPM_P2
2022/06/17 00:00:54;;;;;;;11.63;9.10;;;17.40;99.90;;;;;;5048195;28;20108;-68
2022/06/17 00:03:21;;;;;;;12.85;9.50;;;16.60;99.90;;;;;;5032196;28;20041;-67
2022/06/17 00:05:47;;;;;;;13.57;9.85;;;16.50;99.90;;;;;;5032485;28;20398;-68
2022/06/17 00:08:18;;;;;;;14.65;9.32;;;16.50;99.90;;;;;;5035244;28;20040;-68
2022/06/17 00:10:44;;;;;;;13.82;9.60;;;17.00;99.90;;;;;;5052138;28;20431;-67
2022/06/17 00:13:16;;;;;;;11.35;9.18;;;17.70;99.90;;;;;;5052279;28;20094;-67
2022/06/17 00:15:45;;;;;;;11.70;8.70;;;16.40;99.90;;;;;;5052616;28;20041;-67
2022/06/17 00:18:14;;;;;;;12.27;10.07;;;16.50;99.90;;;;;;5052290;28;20036;-69
2022/06/17 00:20:41;;;;;;;13.57;10.88;;;16.40;99.90;;;;;;5035081;28;20044;-67
2022/06/17 00:23:17;;;;;;;14.38;11.18;;;16.40;99.90;;;;;;5035643;28;20037;-67
2022/06/17 00:25:48;;;;;;;15.13;10.63;;;16.20;99.90;;;;;;5035706;28;20094;-69
2022/06/17 00:28:17;;;;;;;13.23;10.43;;;16.30;99.90;;;;;;5052344;28;20068;-69
2022/06/17 00:30:43;;;;;;;12.88;10.07;;;16.20;99.90;;;;;;5034855;28;20414;-67
2022/06/17 00:33:09;;;;;;;13.75;10.82;;;16.30;99.90;;;;;;5035341;28;20041;-67
2022/06/17 00:35:51;;;;;;;15.48;10.88;;;16.20;99.90;;;;;;5035489;28;20063;-67
2022/06/17 00:38:21;;;;;;;14.77;11.00;;;16.20;99.90;;;;;;5035787;28;20507;-67
2022/06/17 00:40:47;;;;;;;14.75;11.15;;;17.00;99.90;;;;;;5034746;28;20033;-68
2022/06/17 00:43:23;;;;;;;15.60;11.43;;;16.00;99.90;;;;;;5052219;28;20081;-67
2022/06/17 00:46:06;;;;;;;10.48;9.23;;;16.20;99.90;;;;;;5035555;28;20103;-67
2022/06/17 00:48:46;;;;;;;13.65;10.43;;;16.00;99.90;;;;;;5051544;28;20508;-67
2022/06/17 00:51:24;;;;;;;14.63;10.50;;;16.10;99.90;;;;;;5050955;28;20041;-67
2022/06/17 00:53:54;;;;;;;13.70;10.77;;;16.10;99.90;;;;;;5034830;28;20080;-68
2022/06/17 00:56:24;;;;;;;12.52;9.88;;;15.80;99.90;;;;;;5035057;28;20052;-67
2022/06/17 00:58:53;;;;;;;14.70;9.68;;;16.00;99.90;;;;;;5034684;28;20173;-67
2022/06/17 01:01:22;;;;;;;11.57;9.35;;;16.70;99.90;;;;;;5034955;28;20103;-67
2022/06/17 01:03:51;;;;;;;13.60;9.90;;;15.90;99.90;;;;;;5035088;28;20400;-68
2022/06/17 01:06:19;;;;;;;11.13;9.90;;;16.30;99.90;;;;;;5034997;28;20037;-67
2022/06/17 01:11:42;;;;;;;11.95;9.40;;;16.10;99.90;;;;;;5051235;28;20041;-69
2022/06/17 01:14:11;;;;;;;14.98;10.43;;;16.20;99.90;;;;;;5034890;28;20328;-67
2022/06/17 01:16:39;;;;;;;16.80;10.07;;;15.90;99.90;;;;;;5051235;28;20098;-68
2022/06/17 01:19:41;;;;;;;13.55;9.63;;;16.10;99.90;;;;;;5034141;28;20052;-68
2022/06/17 01:22:27;;;;;;;13.52;9.82;;;15.80;99.90;;;;;;5034681;28;20343;-67
2022/06/17 01:25:08;;;;;;;12.80;10.43;;;15.80;99.90;;;;;;5051239;28;20059;-67
2022/06/17 01:27:40;;;;;;;16.58;10.10;;;16.00;99.90;;;;;;5034760;28;20131;-67
2022/06/17 01:30:08;;;;;;;15.68;11.18;;;16.30;99.90;;;;;;5033929;28;20055;-67
2022/06/17 01:32:41;;;;;;;12.98;10.50;;;15.80;99.90;;;;;;5051190;28;20043;-68
2022/06/17 01:35:09;;;;;;;15.95;10.73;;;15.80;99.90;;;;;;5034551;28;20040;-68
2022/06/17 01:37:35;;;;;;;12.02;9.38;;;15.80;99.90;;;;;;5050914;28;20052;-68
2022/06/17 01:40:01;;;;;;;12.10;9.32;;;16.30;99.90;;;;;;5050356;28;20414;-67
2022/06/17 01:42:29;;;;;;;12.38;9.23;;;15.70;99.90;;;;;;5050983;28;20090;-67
2022/06/17 01:44:55;;;;;;;15.38;9.27;;;15.70;99.90;;;;;;5050575;28;20051;-68
2022/06/17 01:47:25;;;;;;;13.23;10.23;;;15.90;99.90;;;;;;5050781;28;20378;-68
2022/06/17 01:49:59;;;;;;;18.20;10.90;;;15.50;99.90;;;;;;5033321;28;20498;-67
2022/06/17 01:52:32;;;;;;;13.52;10.02;;;15.70;99.90;;;;;;5030282;28;20033;-69
2022/06/17 01:55:05;;;;;;;10.10;8.82;;;15.60;99.90;;;;;;5030567;28;20514;-67
2022/06/17 01:57:39;;;;;;;11.35;9.90;;;15.70;99.90;;;;;;5030998;28;20113;-69
2022/06/17 02:00:21;;;;;;;13.90;10.20;;;16.20;99.90;;;;;;5029812;28;20449;-69
2022/06/17 02:03:09;;;;;;;14.77;10.35;;;15.40;99.90;;;;;;5014060;28;20048;-67
2022/06/17 02:05:36;;;;;;;11.82;8.85;;;15.50;99.90;;;;;;5012996;28;20049;-67
2022/06/17 02:08:04;;;;;;;12.35;8.52;;;15.50;99.90;;;;;;5030451;28;20388;-67
2022/06/17 02:10:35;;;;;;;13.82;10.38;;;15.50;99.90;;;;;;5013023;28;20056;-67
2022/06/17 02:13:03;;;;;;;12.25;9.75;;;15.40;99.90;;;;;;5030427;28;20033;-67
2022/06/17 02:15:29;;;;;;;12.63;9.35;;;15.60;99.90;;;;;;5046827;28;20044;-68
2022/06/17 02:17:56;;;;;;;13.57;10.15;;;15.30;99.90;;;;;;5050099;28;20040;-67
2022/06/17 02:20:24;;;;;;;12.30;9.80;;;15.30;99.90;;;;;;5049288;28;20128;-67
2022/06/17 02:22:51;;;;;;;14.45;8.75;;;15.30;99.90;;;;;;5050390;28;20037;-68
2022/06/17 02:25:21;;;;;;;15.18;8.60;;;15.30;99.90;;;;;;5033594;28;20522;-67
2022/06/17 02:27:52;;;;;;;8.80;7.88;;;15.20;99.90;;;;;;5033447;28;20189;-67
2022/06/17 02:30:19;;;;;;;10.73;8.48;;;15.40;99.90;;;;;;5049884;28;20044;-67
2022/06/17 02:32:46;;;;;;;10.68;8.30;;;15.10;99.90;;;;;;5033130;28;20034;-67
2022/06/17 02:35:40;;;;;;;9.90;8.63;;;15.40;99.90;;;;;;5049927;28;20041;-69
2022/06/17 02:38:07;;;;;;;14.00;9.13;;;15.40;99.90;;;;;;5049993;28;20037;-67
2022/06/17 02:40:41;;;;;;;9.63;7.97;;;15.20;99.90;;;;;;5050722;28;20056;-67
2022/06/17 02:43:12;;;;;;;10.10;7.90;;;15.40;99.90;;;;;;5049637;28;20592;-67
2022/06/17 02:45:48;;;;;;;9.40;7.72;;;15.70;99.90;;;;;;5033059;28;20071;-69
2022/06/17 02:48:27;;;;;;;12.68;8.75;;;15.20;99.90;;;;;;5033117;28;20073;-67
2022/06/17 02:50:56;;;;;;;11.40;8.20;;;15.40;99.90;;;;;;5048692;28;20037;-68
2022/06/17 02:53:33;;;;;;;10.10;7.82;;;15.20;99.90;;;;;;5032936;28;20044;-67
2022/06/17 02:56:03;;;;;;;10.32;8.10;;;15.10;99.90;;;;;;5032997;28;20503;-68
2022/06/17 02:58:43;;;;;;;10.13;7.28;;;15.40;99.90;;;;;;5032856;28;20406;-67
2022/06/17 03:01:27;;;;;;;7.90;7.05;;;15.50;99.90;;;;;;5048925;28;20045;-68
2022/06/17 03:03:55;;;;;;;11.00;8.00;;;15.20;99.90;;;;;;5049122;28;20041;-67
2022/06/17 03:06:30;;;;;;;11.38;7.43;;;15.30;99.90;;;;;;5049721;28;20036;-67
2022/06/17 03:09:00;;;;;;;12.82;8.10;;;15.40;99.90;;;;;;5032193;28;20116;-66
2022/06/17 03:11:26;;;;;;;9.70;6.82;;;15.30;99.90;;;;;;5049272;28;20075;-68
2022/06/17 03:13:57;;;;;;;9.52;7.50;;;15.80;99.90;;;;;;5050346;28;20041;-68
2022/06/17 03:16:23;;;;;;;11.25;7.38;;;15.50;99.90;;;;;;5032486;28;20418;-68
2022/06/17 03:18:50;;;;;;;10.35;7.97;;;15.60;99.90;;;;;;5049012;28;20060;-67
2022/06/17 03:21:20;;;;;;;11.50;7.03;;;15.30;99.90;;;;;;5048956;28;20044;-67
2022/06/17 03:24:12;;;;;;;8.02;6.53;;;15.60;99.90;;;;;;5032505;28;20041;-67
2022/06/17 03:26:43;;;;;;;9.63;6.93;;;15.20;99.90;;;;;;5032603;28;20044;-67
2022/06/17 03:29:11;;;;;;;13.25;6.95;;;15.30;99.90;;;;;;5048779;28;20047;-65
2022/06/17 03:31:47;;;;;;;13.73;7.85;;;16.00;99.90;;;;;;5050895;28;20168;-69
2022/06/17 03:34:20;;;;;;;11.93;6.75;;;15.20;99.90;;;;;;5049495;28;20122;-69
2022/06/17 03:37:05;;;;;;;14.57;6.70;;;15.30;99.90;;;;;;5050524;28;20063;-69
2022/06/17 03:39:40;;;;;;;9.13;5.72;;;15.60;99.90;;;;;;5049360;28;20040;-68
2022/06/17 03:42:28;;;;;;;10.60;6.75;;;15.50;99.90;;;;;;5053853;28;20382;-68
2022/06/17 03:45:04;;;;;;;11.15;6.70;;;16.30;99.90;;;;;;5055863;28;20077;-68
2022/06/17 03:47:38;;;;;;;9.52;6.82;;;15.80;99.90;;;;;;5054165;28;20033;-68
2022/06/17 03:50:08;;;;;;;9.98;7.57;;;15.60;99.90;;;;;;5054719;28;20079;-69
2022/06/17 03:52:55;;;;;;;8.70;5.90;;;15.50;99.90;;;;;;5053103;28;20033;-67
2022/06/17 03:55:22;;;;;;;7.43;6.63;;;15.70;99.90;;;;;;5053071;28;20036;-68
2022/06/17 03:57:51;;;;;;;9.80;6.97;;;16.00;99.90;;;;;;5054128;28;20044;-68
2022/06/17 04:00:29;;;;;;;8.13;6.95;;;15.90;99.90;;;;;;5053210;28;20041;-68
2022/06/17 04:02:56;;;;;;;12.02;6.13;;;16.00;99.90;;;;;;5052570;28;20082;-68
2022/06/17 04:05:22;;;;;;;8.13;5.80;;;15.90;99.90;;;;;;5052657;28;20114;-68
2022/06/17 04:07:48;;;;;;;10.60;5.80;;;15.80;99.90;;;;;;5053887;28;20045;-67
2022/06/17 04:10:18;;;;;;;11.50;6.97;;;16.00;99.90;;;;;;5053249;28;20036;-68
2022/06/17 04:12:47;;;;;;;7.70;6.00;;;15.90;99.90;;;;;;5052343;28;20068;-68
2022/06/17 04:15:50;;;;;;;6.20;5.60;;;16.00;99.90;;;;;;5052430;28;20037;-67
2022/06/17 04:18:15;;;;;;;11.40;6.10;;;16.00;99.90;;;;;;5052262;28;20124;-68
2022/06/17 04:20:56;;;;;;;10.75;6.28;;;16.10;99.90;;;;;;5051919;28;20443;-68
2022/06/17 04:23:34;;;;;;;7.15;6.00;;;16.00;99.90;;;;;;5052480;28;20044;-68
2022/06/17 04:26:26;;;;;;;11.20;6.35;;;17.10;99.90;;;;;;5052471;28;20048;-68
2022/06/17 04:28:59;;;;;;;8.48;6.60;;;16.10;99.90;;;;;;5053548;28;20029;-67
2022/06/17 04:31:26;;;;;;;;;;;16.00;99.90;;;;;;5052843;28;20382;-69
2022/06/17 04:33:59;;;;;;;8.98;6.47;;;16.40;99.90;;;;;;5035837;28;20007;-68
2022/06/17 04:36:29;;;;;;;10.13;6.63;;;16.00;99.90;;;;;;5052251;28;20087;-67
2022/06/17 04:39:03;;;;;;;12.10;7.22;;;16.10;99.90;;;;;;5052818;28;20047;-71
2022/06/17 04:41:36;;;;;;;10.73;6.63;;;16.00;99.90;;;;;;5052152;28;20127;-67
2022/06/17 04:44:04;;;;;;;9.63;6.10;;;16.20;99.90;;;;;;5051827;28;20041;-68
2022/06/17 04:46:35;;;;;;;8.02;5.90;;;15.50;99.90;;;;;;5052359;28;20482;-68
2022/06/17 04:49:03;;;;;;;10.13;5.97;;;16.30;99.90;;;;;;5051581;28;20049;-68
2022/06/17 04:51:31;;;;;;;10.23;6.03;;;16.30;99.90;;;;;;5052873;28;20078;-68
2022/06/17 04:53:57;;;;;;;9.10;6.93;;;16.10;99.90;;;;;;5051456;28;20044;-68
2022/06/17 04:56:36;;;;;;;8.40;5.80;;;16.20;99.90;;;;;;5052811;28;20041;-68
2022/06/17 04:59:16;;;;;;;8.65;6.22;;;16.30;99.90;;;;;;5052572;28;20036;-68
2022/06/17 05:01:42;;;;;;;7.35;6.32;;;16.10;99.90;;;;;;5051547;28;20115;-68
2022/06/17 05:04:08;;;;;;;9.15;6.57;;;16.70;99.90;;;;;;5053005;28;20037;-68
2022/06/17 05:06:33;;;;;;;12.40;7.53;;;16.30;99.90;;;;;;5051770;28;20048;-68
2022/06/17 05:09:10;;;;;;;10.93;6.85;;;16.60;99.90;;;;;;5051695;28;20060;-69
2022/06/17 05:11:41;;;;;;;13.18;8.05;;;16.70;99.90;;;;;;5051505;28;20089;-67
2022/06/17 05:14:17;;;;;;;10.07;6.60;;;16.40;99.90;;;;;;5052733;28;20032;-70
2022/06/17 05:16:43;;;;;;;9.80;7.35;;;16.20;99.90;;;;;;5029472;28;20041;-68
2022/06/17 05:19:08;;;;;;;13.02;7.22;;;16.30;99.90;;;;;;5018876;23;20538;-67
2022/06/17 05:21:34;;;;;;;10.40;6.65;;;16.40;99.90;;;;;;5016425;28;20546;-68
2022/06/17 05:24:00;;;;;;;10.05;6.57;;;16.50;99.90;;;;;;5014729;28;20046;-68
2022/06/17 05:26:27;;;;;;;8.88;6.95;;;16.40;99.90;;;;;;5030582;28;20037;-68
2022/06/17 05:28:53;;;;;;;10.85;7.35;;;16.60;99.90;;;;;;5050890;28;20116;-68
2022/06/17 05:31:22;;;;;;;9.63;7.10;;;16.70;99.90;;;;;;5052348;28;20589;-68
2022/06/17 05:33:48;;;;;;;10.20;7.93;;;16.50;99.90;;;;;;5034346;28;20049;-68
2022/06/17 05:36:15;;;;;;;14.25;7.68;;;16.70;99.90;;;;;;5017880;28;20045;-68
2022/06/17 05:38:42;;;;;;;14.57;7.28;;;16.60;99.90;;;;;;5001493;28;20082;-68
2022/06/17 05:41:14;;;;;;;9.18;6.05;;;16.70;99.90;;;;;;5014018;28;20057;-68
2022/06/17 05:43:40;;;;;;;8.52;6.85;;;16.70;99.90;;;;;;5014574;28;20044;-68
2022/06/17 05:46:06;;;;;;;8.43;7.07;;;16.80;99.90;;;;;;5014593;28;20037;-68
2022/06/17 05:48:31;;;;;;;10.77;7.05;;;17.00;99.90;;;;;;4997853;28;20534;-68
2022/06/17 05:50:57;;;;;;;10.68;7.25;;;16.80;99.90;;;;;;4997111;28;20106;-68
2022/06/17 05:53:23;;;;;;;11.43;8.05;;;16.60;99.90;;;;;;4998358;28;20044;-69
2022/06/17 05:55:50;;;;;;;10.98;6.85;;;16.60;99.90;;;;;;5014488;28;20076;-68
2022/06/17 05:58:16;;;;;;;8.90;6.72;;;16.90;99.90;;;;;;5014559;28;20095;-69
2022/06/17 06:00:42;;;;;;;8.15;6.78;;;16.90;99.90;;;;;;4997137;28;20041;-70
2022/06/17 06:03:15;;;;;;;14.55;8.38;;;17.10;99.90;;;;;;4997856;28;20052;-68
2022/06/17 06:05:41;;;;;;;;;;;17.20;99.90;;;;;;5010716;28;20060;-69
2022/06/17 06:08:06;;;;;;;11.48;7.47;;;17.20;99.90;;;;;;4999951;28;19917;-69
2022/06/17 06:10:32;;;;;;;11.60;7.35;;;17.10;99.90;;;;;;4982486;28;20048;-68
2022/06/17 06:12:58;;;;;;;8.93;7.50;;;17.70;99.90;;;;;;4982934;28;20045;-69
2022/06/17 06:15:31;;;;;;;8.73;6.88;;;17.40;99.90;;;;;;4985902;28;20415;-69
2022/06/17 06:17:57;;;;;;;10.30;7.47;;;17.60;99.90;;;;;;4988912;28;20372;-69
2022/06/17 06:20:23;;;;;;;11.40;7.47;;;17.70;99.90;;;;;;5008734;28;20034;-69
2022/06/17 06:22:57;;;;;;;10.50;6.68;;;17.70;99.90;;;;;;4987291;28;20133;-69
2022/06/17 06:25:23;;;;;;;8.35;6.75;;;18.00;99.90;;;;;;5004596;28;20045;-69
2022/06/17 06:27:49;;;;;;;9.25;6.38;;;18.00;99.90;;;;;;5004927;28;20037;-68
2022/06/17 06:30:20;;;;;;;8.73;6.53;;;18.20;99.90;;;;;;5005404;28;20079;-68
2022/06/17 06:32:51;;;;;;;9.10;6.50;;;18.10;99.90;;;;;;4991496;28;20037;-70
2022/06/17 06:35:17;;;;;;;11.25;6.95;;;18.10;99.90;;;;;;5002323;28;20057;-68
2022/06/17 06:37:43;;;;;;;11.65;6.68;;;18.10;99.90;;;;;;5002782;28;20176;-69
2022/06/17 06:40:10;;;;;;;10.07;7.20;;;18.20;99.90;;;;;;4997900;28;20113;-69
2022/06/17 06:42:35;;;;;;;11.68;6.78;;;18.10;99.90;;;;;;4987859;28;20367;-69
2022/06/17 06:45:01;;;;;;;9.18;7.32;;;18.30;99.90;;;;;;4992466;28;20060;-69
2022/06/17 06:47:28;;;;;;;8.40;7.10;;;18.30;99.90;;;;;;4986612;28;20056;-69
2022/06/17 06:49:53;;;;;;;11.07;7.75;;;18.40;99.90;;;;;;4991242;28;20108;-70
2022/06/17 06:52:19;;;;;;;11.15;7.53;;;18.30;99.90;;;;;;4992808;28;20561;-70
2022/06/17 06:54:44;;;;;;;12.93;7.53;;;18.30;99.90;;;;;;4993700;28;20072;-70
2022/06/17 06:57:11;;;;;;;11.70;7.15;;;18.40;99.90;;;;;;5010567;28;20045;-70
2022/06/17 06:59:37;;;;;;;10.15;6.97;;;18.50;99.90;;;;;;4986172;28;20045;-69
2022/06/17 07:02:03;;;;;;;10.98;8.02;;;18.60;99.90;;;;;;4988308;28;20106;-70
2022/06/17 07:04:28;;;;;;;10.60;6.85;;;18.50;99.90;;;;;;5004352;28;20511;-70
2022/06/17 07:06:54;;;;;;;13.55;8.57;;;18.40;99.90;;;;;;5005458;28;20326;-70
2022/06/17 07:09:22;;;;;;;11.13;7.88;;;18.80;99.90;;;;;;4977297;28;20048;-70
2022/06/17 07:11:47;;;;;;;10.73;7.57;;;18.90;99.90;;;;;;4983531;28;20040;-70
2022/06/17 07:14:13;;;;;;;12.23;7.70;;;19.00;99.90;;;;;;4987759;28;20041;-70
2022/06/17 07:16:39;;;;;;;12.65;7.85;;;19.10;99.90;;;;;;5004047;28;20042;-69
2022/06/17 07:19:07;;;;;;;12.77;7.88;;;19.20;99.90;;;;;;5003514;28;20099;-70
2022/06/17 07:21:33;;;;;;;13.15;8.15;;;19.40;99.90;;;;;;4982495;28;20041;-70
2022/06/17 07:23:59;;;;;;;14.15;7.97;;;19.60;99.90;;;;;;5002412;28;20048;-70
2022/06/17 07:26:26;;;;;;;10.60;7.60;;;19.60;99.90;;;;;;5003495;28;20037;-70
2022/06/17 07:28:53;;;;;;;12.40;8.02;;;19.80;99.90;;;;;;4988032;28;20385;-69
2022/06/17 07:31:21;;;;;;;11.70;7.32;;;19.70;99.90;;;;;;4988593;28;20038;-70
2022/06/17 07:33:47;;;;;;;8.65;7.10;;;19.80;99.90;;;;;;4982006;28;20041;-70
2022/06/17 07:41:50;;;;;;;11.02;7.38;;;20.10;99.90;;;;;;5008515;28;20091;-71
2022/06/17 07:44:17;;;;;;;12.05;7.55;;;20.30;99.90;;;;;;5029155;28;20046;-71
2022/06/17 07:46:43;;;;;;;15.00;7.85;;;19.80;99.90;;;;;;5002944;28;20553;-71
2022/06/17 07:49:10;;;;;;;11.93;7.93;;;20.00;99.90;;;;;;4988115;28;20045;-71
2022/06/17 07:51:35;;;;;;;13.68;7.57;;;20.10;99.90;;;;;;4988875;28;20052;-72
2022/06/17 07:54:01;;;;;;;16.60;8.43;;;20.40;99.90;;;;;;5001351;28;20038;-71
2022/06/17 07:56:27;;;;;;;10.75;7.18;;;20.50;99.90;;;;;;5000839;28;20096;-71
2022/06/17 07:58:52;;;;;;;13.13;7.30;;;20.40;99.90;;;;;;4987580;28;20045;-71
2022/06/17 08:01:18;;;;;;;13.10;7.53;;;20.40;99.90;;;;;;4995959;28;20103;-71
2022/06/17 08:03:44;;;;;;;11.75;7.70;;;20.50;99.90;;;;;;5021000;28;20527;-71
2022/06/17 08:06:13;;;;;;;10.48;7.65;;;20.40;99.90;;;;;;5002180;28;20029;-71
2022/06/17 08:08:40;;;;;;;11.35;7.18;;;20.70;99.90;;;;;;5001718;28;20042;-71
2022/06/17 08:11:06;;;;;;;12.73;7.60;;;20.70;99.90;;;;;;4987928;28;20034;-71
2022/06/17 08:13:32;;;;;;;10.88;6.95;;;20.90;99.90;;;;;;4998060;28;20084;-71
2022/06/17 08:16:00;;;;;;;13.07;7.57;;;21.30;99.90;;;;;;4983426;28;20073;-71
2022/06/17 08:18:26;;;;;;;10.02;6.50;;;21.60;99.90;;;;;;5002882;28;20113;-71
2022/06/17 08:20:52;;;;;;;8.82;6.72;;;21.50;99.90;;;;;;5018159;28;20116;-71
2022/06/17 08:23:19;;;;;;;13.40;7.43;;;22.00;99.90;;;;;;4985526;28;20077;-71
2022/06/17 08:25:45;;;;;;;10.93;6.53;;;21.80;99.90;;;;;;4987568;28;20068;-71
2022/06/17 08:28:12;;;;;;;12.52;6.68;;;21.60;99.90;;;;;;4986858;28;20495;-70
2022/06/17 08:30:45;;;;;;;7.43;6.43;;;21.60;99.90;;;;;;4985140;28;20088;-71
2022/06/17 08:33:11;;;;;;;7.45;5.95;;;22.50;99.90;;;;;;5021419;28;20032;-71
2022/06/17 08:35:41;;;;;;;10.75;6.15;;;22.20;99.90;;;;;;5022002;28;20034;-71
2022/06/17 08:38:31;;;;;;;8.68;5.28;;;21.70;99.90;;;;;;5009281;28;20072;-71
2022/06/17 08:40:59;;;;;;;9.93;5.00;;;21.50;99.90;;;;;;5002711;28;20041;-71
2022/06/17 08:43:37;;;;;;;7.65;4.50;;;21.80;99.90;;;;;;5013375;28;20041;-71
2022/06/17 08:46:24;;;;;;;7.95;4.88;;;21.60;99.90;;;;;;5019102;28;20037;-71
2022/06/17 08:48:55;;;;;;;10.35;5.20;;;21.60;99.90;;;;;;5004663;28;20487;-71
2022/06/17 08:51:42;;;;;;;9.23;5.07;;;21.60;99.90;;;;;;5003802;28;20038;-72
2022/06/17 08:54:25;;;;;;;9.55;5.20;;;21.70;99.90;;;;;;5023934;28;20045;-72
2022/06/17 08:57:19;;;;;;;8.65;5.20;;;21.80;99.90;;;;;;5021508;28;20478;-71
2022/06/17 08:59:50;;;;;;;;;;;22.10;99.90;;;;;;5014146;28;20077;-71
2022/06/17 09:02:19;;;;;;;7.57;4.95;;;22.00;99.90;;;;;;5022234;28;19932;-71
2022/06/17 09:05:21;;;;;;;7.95;5.15;;;22.30;99.90;;;;;;5010336;28;20135;-72
2022/06/17 09:08:03;;;;;;;8.15;4.80;;;22.10;99.90;;;;;;4999573;28;20045;-70
2022/06/17 09:10:37;;;;;;;8.73;5.38;;;22.10;99.90;;;;;;5030437;28;20036;-71
2022/06/17 09:13:30;;;;;;;10.60;5.22;;;22.00;99.90;;;;;;5024389;28;20025;-71
2022/06/17 09:16:23;;;;;;;7.38;5.78;;;22.10;99.90;;;;;;5012918;28;20458;-71
2022/06/17 09:18:56;;;;;;;8.60;6.13;;;22.10;99.90;;;;;;4999220;28;20045;-71
2022/06/17 09:21:46;;;;;;;10.35;5.10;;;22.00;99.90;;;;;;5021496;28;20104;-71
2022/06/17 09:24:29;;;;;;;7.57;5.32;;;22.40;99.90;;;;;;5027416;28;20029;-71
2022/06/17 09:26:58;;;;;;;11.70;5.75;;;22.80;99.90;;;;;;5014668;28;20044;-71
2022/06/17 09:29:32;;;;;;;9.32;5.35;;;23.30;99.90;;;;;;5028409;28;20037;-70
2022/06/17 09:32:11;;;;;;;6.63;5.22;;;23.10;99.90;;;;;;5013688;28;20491;-70
2022/06/17 09:34:47;;;;;;;11.73;6.75;;;23.30;99.90;;;;;;5032196;28;20041;-70
2022/06/17 09:37:12;;;;;;;8.15;5.38;;;23.30;99.90;;;;;;4998308;28;20114;-70
2022/06/17 09:39:50;;;;;;;6.60;5.55;;;23.60;99.90;;;;;;5011960;28;20483;-70
2022/06/17 09:42:33;;;;;;;7.28;5.18;;;23.40;99.90;;;;;;5031315;28;20368;-69
2022/06/17 09:45:17;;;;;;;8.40;6.13;;;24.00;99.90;;;;;;4993143;28;20049;-70
2022/06/17 09:48:03;;;;;;;8.80;6.15;;;23.30;99.90;;;;;;5015343;28;20033;-71
2022/06/17 09:50:38;;;;;;;7.57;5.43;;;23.30;99.90;;;;;;5026911;28;20056;-69
2022/06/17 09:53:26;;;;;;;8.63;5.45;;;23.60;99.90;;;;;;5030150;28;20087;-69
2022/06/17 09:56:09;;;;;;;9.48;5.53;;;24.90;99.90;;;;;;5011413;28;20033;-69
2022/06/17 09:58:46;;;;;;;8.52;5.43;;;23.90;99.90;;;;;;5012790;28;20041;-69
2022/06/17 10:01:12;;;;;;;11.07;5.47;;;23.90;99.90;;;;;;4997196;28;20029;-70
2022/06/17 10:03:39;;;;;;;9.32;5.68;;;25.20;99.90;;;;;;5013397;28;20033;-70
2022/06/17 10:06:42;;;;;;;10.48;6.05;;;24.20;99.90;;;;;;5014145;28;20491;-70
2022/06/17 10:09:40;;;;;;;8.10;5.50;;;24.20;99.90;;;;;;5021184;28;20491;-70
2022/06/17 10:12:46;;;;;;;10.63;5.30;;;24.40;99.90;;;;;;5016972;28;20036;-71
2022/06/17 10:15:19;;;;;;;8.82;5.22;;;24.20;99.90;;;;;;5018344;28;20045;-71
2022/06/17 10:20:59;;;;;;;7.38;4.30;;;24.40;99.80;;;;;;5015479;28;20040;-71
2022/06/17 10:23:55;;;;;;;7.95;4.55;;;24.60;99.90;;;;;;5031637;28;20099;-71
2022/06/17 10:26:44;;;;;;;11.35;4.22;;;24.50;99.20;;;;;;5012935;28;20038;-73
2022/06/17 10:29:29;;;;;;;9.00;3.97;;;24.80;99.50;;;;;;4988263;28;20963;-71
2022/06/17 10:31:55;;;;;;;5.03;4.00;;;24.60;99.80;;;;;;5013440;28;20029;-70
2022/06/17 10:34:27;;;;;;;10.68;3.58;;;25.00;99.80;;;;;;5030422;28;20036;-71
2022/06/17 10:37:00;;;;;;;7.30;3.15;;;24.90;99.60;;;;;;5011252;28;20033;-72
2022/06/17 10:39:28;;;;;;;5.78;3.83;;;25.00;99.70;;;;;;5029752;28;20029;-71
2022/06/17 10:41:56;;;;;;;7.63;3.53;;;24.80;99.40;;;;;;5013489;28;20111;-70
2022/06/17 10:44:24;;;;;;;4.97;3.35;;;25.40;99.50;;;;;;5030489;28;20033;-71
2022/06/17 10:46:59;;;;;;;9.35;4.03;;;25.00;99.40;;;;;;5013023;28;20044;-71
2022/06/17 10:49:37;;;;;;;5.75;3.67;;;25.30;99.10;;;;;;5010684;28;20029;-71
2022/06/17 10:52:14;;;;;;;9.35;5.00;;;25.30;98.50;;;;;;5012239;28;20029;-71
2022/06/17 10:54:43;;;;;;;6.68;3.80;;;25.20;99.20;;;;;;5013902;28;20045;-71
2022/06/17 10:57:23;;;;;;;7.38;3.92;;;25.30;99.50;;;;;;5013470;28;20038;-71
2022/06/17 10:59:49;;;;;;;7.70;5.10;;;25.40;99.30;;;;;;5029634;28;20383;-71
2022/06/17 11:02:35;;;;;;;7.15;3.65;;;25.30;99.10;;;;;;5013184;28;20038;-71
2022/06/17 11:05:05;;;;;;;5.63;3.70;;;25.30;99.00;;;;;;5030002;28;20398;-71
2022/06/17 11:07:32;;;;;;;7.30;4.45;;;25.30;99.10;;;;;;5012956;28;20510;-71
2022/06/17 11:10:13;;;;;;;5.55;4.22;;;25.20;98.90;;;;;;5013693;28;20128;-71
2022/06/17 11:13:02;;;;;;;6.20;3.50;;;25.30;98.40;;;;;;4996766;28;20033;-70
2022/06/17 11:15:36;;;;;;;5.40;3.22;;;25.30;98.70;;;;;;5027847;28;20085;-70
2022/06/17 11:18:07;;;;;;;7.47;4.55;;;25.40;98.70;;;;;;5012342;28;20033;-71
2022/06/17 11:20:37;;;;;;;6.03;3.47;;;25.40;98.80;;;;;;5025648;28;20037;-71
2022/06/17 11:23:17;;;;;;;7.68;4.13;;;25.40;98.20;;;;;;5011729;28;20073;-71
2022/06/17 11:25:44;;;;;;;10.57;4.18;;;25.60;98.40;;;;;;5001626;28;20041;-71
2022/06/17 11:28:24;;;;;;;11.15;3.85;;;25.70;97.80;;;;;;5026734;28;20029;-72
2022/06/17 11:30:59;;;;;;;5.65;3.35;;;25.50;97.00;;;;;;5025540;28;20120;-71
2022/06/17 11:33:51;;;;;;;4.22;2.80;;;26.10;97.70;;;;;;5024256;28;20041;-72
2022/06/17 11:36:27;;;;;;;6.80;3.55;;;26.10;97.80;;;;;;5021202;28;20049;-72
2022/06/17 11:38:55;;;;;;;9.75;3.30;;;26.50;97.30;;;;;;5031495;22;20095;-80
2022/06/17 11:41:33;;;;;;;6.88;3.30;;;26.30;97.40;;;;;;5050328;28;20045;-77
2022/06/17 11:44:11;;;;;;;6.95;3.80;;;26.70;97.20;;;;;;5050234;28;20028;-75
2022/06/17 11:46:51;;;;;;;7.88;3.35;;;26.10;96.40;;;;;;5056412;28;20017;-76
2022/06/17 11:49:19;;;;;;;5.47;3.45;;;27.40;97.20;;;;;;5039528;28;20036;-80
2022/06/17 11:52:01;;;;;;;7.43;3.90;;;26.40;97.10;;;;;;5029327;28;20065;-77
2022/06/17 11:54:38;;;;;;;6.83;3.33;;;26.10;96.70;;;;;;5051760;28;20041;-77
2022/06/17 11:57:19;;;;;;;3.22;2.90;;;27.00;96.80;;;;;;5056088;28;20096;-78
2022/06/17 11:59:49;;;;;;;7.18;3.63;;;26.50;96.40;;;;;;5050297;28;20037;-75
2022/06/17 12:02:15;;;;;;;8.82;3.15;;;26.40;96.60;;;;;;5033304;28;20143;-75
2022/06/17 12:04:42;;;;;;;7.50;3.08;;;26.80;96.90;;;;;;5036500;28;20190;-75
2022/06/17 12:07:42;;;;;;;11.13;3.00;;;26.60;96.10;;;;;;5036431;28;20091;-75
2022/06/17 12:10:35;;;;;;;8.32;3.20;;;26.80;96.50;;;;;;5052950;28;20104;-75
2022/06/17 12:13:13;;;;;;;6.55;3.25;;;26.80;96.00;;;;;;5053530;28;20043;-74
2022/06/17 12:15:41;;;;;;;5.70;3.28;;;27.20;96.30;;;;;;5035459;28;20374;-74
2022/06/17 12:18:22;;;;;;;8.60;3.05;;;27.50;96.20;;;;;;5035237;28;20088;-75
2022/06/17 12:20:57;;;;;;;3.92;3.33;;;27.40;97.00;;;;;;5034391;28;20037;-76
2022/06/17 12:23:36;;;;;;;7.63;2.67;;;27.40;98.10;;;;;;5035849;28;20040;-75
2022/06/17 12:26:05;;;;;;;7.22;2.58;;;27.80;97.60;;;;;;5034699;28;20064;-76
2022/06/17 12:28:46;;;;;;;5.85;2.65;;;27.80;97.00;;;;;;5030927;28;20873;-75
2022/06/17 12:31:34;;;;;;;4.15;2.50;;;27.80;96.90;;;;;;5048894;28;20040;-75
2022/06/17 12:34:39;;;;;;;5.53;2.80;;;27.60;96.80;;;;;;5035429;28;20044;-74
2022/06/17 12:37:12;;;;;;;4.85;2.70;;;28.00;97.20;;;;;;5053007;28;20083;-75
2022/06/17 12:39:50;;;;;;;7.97;3.28;;;28.10;97.00;;;;;;5034697;28;20029;-75
2022/06/17 12:42:26;;;;;;;3.92;2.65;;;27.80;96.80;;;;;;5035872;28;20090;-75
2022/06/17 12:45:08;;;;;;;4.85;2.80;;;28.00;96.00;;;;;;5054284;28;20078;-75
2022/06/17 12:47:45;;;;;;;6.10;2.80;;;27.70;94.80;;;;;;5044958;28;20045;-76
2022/06/17 12:53:17;;;;;;;5.32;2.83;;;27.60;95.20;;;;;;5053543;28;20041;-76
2022/06/17 12:56:23;;;;;;;5.30;2.10;;;27.30;94.60;;;;;;5035875;28;20102;-75
2022/06/17 12:59:15;;;;;;;4.18;2.67;;;27.60;94.80;;;;;;5053215;28;20045;-75
2022/06/17 13:01:54;;;;;;;5.53;2.60;;;27.60;94.50;;;;;;5016003;28;20049;-75
2022/06/17 13:04:44;;;;;;;5.82;2.80;;;27.30;94.80;;;;;;5031650;28;20475;-74
2022/06/17 13:07:33;;;;;;;7.65;2.33;;;27.00;94.20;;;;;;5029229;28;20033;-74
2022/06/17 13:10:39;;;;;;;3.83;2.20;;;27.30;95.00;;;;;;5015123;28;20387;-74
2022/06/17 13:13:24;;;;;;;6.97;2.80;;;27.60;95.40;;;;;;5027172;28;20055;-75
2022/06/17 13:15:55;;;;;;;6.43;2.50;;;27.70;94.80;;;;;;5028033;28;20028;-75
2022/06/17 13:18:49;;;;;;;5.82;2.80;;;27.90;95.40;;;;;;5017704;28;20056;-75
2022/06/17 13:21:30;;;;;;;4.00;2.55;;;27.70;94.80;;;;;;5033916;28;20056;-74
2022/06/17 13:24:05;;;;;;;5.57;2.42;;;27.70;95.20;;;;;;5033948;28;20710;-75
2022/06/17 13:26:54;;;;;;;7.18;2.58;;;27.70;94.90;;;;;;5052812;28;20045;-75